CFB Trenton
CYTR : now visible

Airfield :











YOU CAN JOIN US ON...

 
LOGIN :

Register | Disclaimer

   EN    FR    IT 

 









Legend :    VFR   Marginal VFR   IFR   Intensive IFR   Very Intensive IFR
Visi :
Ceiling :
>= 8 km
>= 3000ft
5 to 8 km
1000 to 3000 ft
1500m to 5 km
500 to 1000 ft
800 to 1500m
200 to 500 ft
< 800m
< 200 ft
Symbols :   Thunderstorms  Fog  Heavy snow  Heavy precipitations  Wind > 20 kt






- Airport Elevation : 283 ft
- IATA code : YTR


CYTR - CFB Trenton

CURRENT METAR :
  • 060400Z AUTO 05005KT 9SM CLR 22/17 A2998 RMK SLP152

EXPIRED METARs :
  • 060300Z AUTO 36006KT 9SM CLR 23/17 A2997 RMK SLP147
  • 060200Z AUTO 36002KT 9SM CLR 24/18 A2996 RMK SLP144
  • 060145Z 35002KT 15SM FEW070 BKN250 24/18 A2996 RMK AC2CI3 LAST STFD OBS/NEXT 061000 UTC SLP144

TAF TAF CYTR
Valid from the 06 at 00:00 until the 07 at 00:00 UTC


052330Z 0600/0624 30008KT P6SM FEW060 BKN250
TEMPO 0600/0605 6SM -SHRA BR BKN030 OVC120
FM060500 VRB03KT P6SM SCT100
FM061600 21008KT P6SM SCT040 RMK FCST BASED ON AUTO OBS 060200-061000Z. NXT FCST BY 060600Z
CZYZ FIR / North America



MET'MAP, your aeronautical weather chart ! - Copyright ORBIFLY December 2007 - Disclaimer

ORBIFLY MET'MAP TEAM :

Programming & Development : Alexandra Zaïnal
Concept & original design : Baudouin d'Aumeries
Assistance for programming : Marc-Olivier Méhu
Technical & hardware support : Manuel Goepfert

Contact : metmap@orbifly.com




SOURCES & CREDITS :

   NOAA       Earth
Advisory